Terminal Aerodrome Forecast
Issued by NWS Des Moines, IA

Home | Current Version | Previous Version | Text Only | Print | Product List | Glossary On
Versions: 1 2 3 4 5 6 7 8 9 10 11 12 13 14
000
FTUS43 KDMX 241120
TAFDSM
TAF
KDSM 241120Z 2412/2512 23006KT P6SM FEW015 SCT200
      TEMPO 2413/2414 BKN015
     FM241400 33009KT P6SM SCT250=

USA.gov is the U.S. government's official web portal to all federal, state and local government web resources and services.